Ferryville, Wisconsin
Current Conditions -  °F | °C
As of 3:14 PM on Monday 22 Dec 2014 (Local Time) from KY51 Reporting Station
Overcast Overcast  
Wind Chill: 24°   Ceiling: 600
Heat Index: 34°   Visibility: 2mi
Dew Point: 34°   Wind: 15mph
Humidity: 100%   Direction: 100°E
Pressure: 29.62"   Gusts: 20mph
Location:  43.35°N, 91.1°W
Report Text: KY51 222114Z AUTO 10013G17KT 2SM OVC006 01/01 A2962 RMK AO1 T00100010
Loading
Personal Weather Stations






























Interactive Weather Map New forecast layout! Learn more

10-Day Weather Forecast

Advertisements
Track Severe Weather on mobile